Tiempo atmosférico en la estación meteorológica de San Roque, Cádiz (1 m.)



Fecha
DESCASC
Temp. máxima en grados centígrados (hora)
DESCASC
Temp. mínima en grados centígrados (hora)
DESCASC
Temp. media en grados centígrados
DESCASC
Racha de viento máxima en m/sg (hora)
DESCASC
Velocidad máxima media en intervalos de 10 minutos(hora)
DESCASC
Precipitaciones diarias en mm
DESCASC
Precipitaciones de 00:00 a 06:00 en mm
DESCASC
Precipitaciones de 06:00 a 12:00 en mm
DESCASC
Precipitaciones de 12:00 a 18:00 en mm
DESCASC
Precipitaciones de 18:00 a 24:00 en mm
DESCASC
16-06-2019 22.3 (17:50) 13.9 (03:20) 18.1 3.89 (11:10) 2.5 (11:10) 0 0 0 0 0
15-06-2019 28.4 (13:40) 16 (04:50) 22.2 12.22 (00:50) 7.5 (01:20) 0 0 0 0 0
14-06-2019 24.6 (15:50) 16.6 (06:20) 20.6 14.72 (15:00) 9.44 (22:40) 0 0 0 0 0
13-06-2019 23.8 (15:20) 17.2 (00:00) 20.5 6.11 (09:00) 3.89 (09:00) 0 0 0 0 0
12-06-2019 20.6 (14:10) 17.4 (00:00) 19 11.67 (05:30) 8.33 (05:40) 0 0 0 0 0
11-06-2019 27.2 (16:30) 16.8 (00:00) 22 13.61 (10:30) 9.17 (12:10) 0 0 0 0 0
10-06-2019 27.1 (14:20) 16.7 (00:00) 21.9 15.28 (15:00) 10.56 (15:50) 0 0 0 0 0
09-06-2019 28.2 (16:50) 17.5 (00:00) 22.9 13.33 (19:10) 8.33 (18:30) 0 0 0 0 0
08-06-2019 23.4 (17:40) 15.3 (00:00) 19.3 6.67 (12:50) 4.44 (12:50) 0 0 0 0 0
07-06-2019 29.6 (18:10) 16.2 (00:00) 22.9 11.11 (17:40) 7.5 (19:40) 0 0 0 0 0
06-06-2019 28.9 (16:30) 15.9 (00:00) 22.4 13.61 (15:50) 8.61 (19:20) 0 0 0 0 0
05-06-2019 26.6 (16:40) 16.4 (00:00) 21.5 15.28 (10:20) 8.61 (10:20) 0 0 0 0 0
04-06-2019 32.1 (16:40) 12.6 (00:00) 22.3 13.33 (18:30) 9.17 (18:30) 0 0 0 0 0
03-06-2019 22.4 (17:00) 12.1 (00:00) 17.3 5 (07:10) 3.61 (07:10) 0 0 0 0 0
02-06-2019 23.7 (16:20) 16.1 (00:00) 19.9 7.22 (09:20) 5.83 (09:30) 0 0 0 0 0
01-06-2019 23.6 (16:20) 18.2 (00:00) 20.9 9.17 (10:10) 7.5 (10:10) 0 0 0 0 0
31-05-2019 24.4 (16:20) 18 (00:00) 21.2 9.17 (00:20) 5 (00:20) 0 0 0 0 0
30-05-2019 23.1 (17:00) 18.4 (00:00) 20.8 11.11 (05:10) 6.67 (04:50) 0 0 0 0 0
29-05-2019 25 (16:30) 19.1 (00:00) 22.1 9.44 (06:10) 5 (05:20) 0 0 0 0 0
28-05-2019 24.1 (12:10) 15.4 (00:00) 19.8 4.17 (01:30) 2.78 (19:30) 0 0 0 0 0
27-05-2019 23.1 (14:40) 13.5 (00:00) 18.3 5.83 (07:30) 3.89 (08:10) 0 0 0 0 0
26-05-2019 23 (15:10) 15.2 (00:00) 19.1 5.28 (09:30) 3.61 (09:30) 0 0 0 0 0
25-05-2019 22.3 (15:30) 16.8 (00:00) 19.5 12.22 (01:00) 6.67 (02:20) 0 0 0 0 0
24-05-2019 27.6 (15:30) 14.2 (00:00) 20.9 14.72 (17:10) 9.44 (17:10) 0 0 0 0 0
23-05-2019 22.4 (15:30) 12.4 (00:00) 17.4 5.28 (08:30) 3.61 (08:30) 0 0 0 0 0
22-05-2019 21.9 (17:00) 15.6 (00:00) 18.8 8.89 (05:20) 5.56 (03:50) 0 0 0 0 0
21-05-2019 29.3 (16:40) 16.6 (05:50) 22.9 10.28 (16:20) 6.39 (16:20) 0 0 0 0 0

Gráficas

Temp. máximas Temp. mínimas Temp. medias Precipitaciones Rachas de viento máximas Velocidades máximas media en intervalos de 10 minutos

Datos horarios

Fecha y hora oficial Temperatura (ºC) Velocidad del viento (km/h) Dirección del viento Racha (km/h) Dirección de racha Precipitación (mm) Presión (hPa) Tendencia (hPa) Humedad (%)
2019-06-19 23:00:00 21.2 31 Oeste 51 Oeste 0 -- -- 72
2019-06-19 22:00:00 22.8 31 Oeste 47 Oeste 0 -- -- 66
2019-06-19 21:00:00 25.4 28 Oeste 44 Oeste 0 -- -- 55
2019-06-19 20:00:00 27.7 26 Oeste 45 Oeste 0 -- -- 49
2019-06-19 19:00:00 29.5 29 Oeste 44 Oeste 0 -- -- 46
2019-06-19 18:00:00 31.9 24 Oeste 40 Oeste 0 -- -- 41
2019-06-19 17:00:00 31.8 23 Oeste 40 Oeste 0 -- -- 38
2019-06-19 16:00:00 31.4 26 Oeste 44 Oeste 0 -- -- 39
2019-06-19 15:00:00 30.4 23 Oeste 43 Sudoeste 0 -- -- 42
2019-06-19 14:00:00 29 24 Oeste 42 Oeste 0 -- -- 46
2019-06-19 13:00:00 27.6 26 Oeste 42 Oeste 0 -- -- 50
2019-06-19 12:00:00 26.3 21 Oeste 42 Oeste 0 -- -- 54
2019-06-19 11:00:00 24.6 22 Oeste 37 Oeste 0 -- -- 58
2019-06-19 10:00:00 23 22 Oeste 35 Oeste 0 -- -- 64
2019-06-19 09:00:00 20.9 21 Oeste 31 Oeste 0 -- -- 72
2019-06-19 08:00:00 19.1 19 Oeste 29 Oeste 0 -- -- 81
2019-06-19 07:00:00 18.9 23 Oeste 41 Oeste 0 -- -- 82
2019-06-19 06:00:00 18.9 16 Oeste 32 Oeste 0 -- -- 82
2019-06-19 05:00:00 18.7 15 Oeste 24 Oeste 0 -- -- 84
2019-06-19 04:00:00 19 17 Oeste 34 Sudoeste 0 -- -- 83
2019-06-19 03:00:00 19 22 Oeste 35 Oeste 0 -- -- 84
2019-06-19 02:00:00 18.9 19 Oeste 32 Oeste 0 -- -- 83
2019-06-19 01:00:00 19.3 21 Oeste 32 Oeste 0 -- -- 81
2019-06-19 00:00:00 20.2 24 Oeste 37 Oeste 0 -- -- 76
2019-06-18 23:00:00 21.2 18 Oeste 35 Oeste 0 -- -- 71
2019-06-18 22:00:00 22.9 19 Oeste 37 Oeste 0 -- -- 64
2019-06-18 21:00:00 25.6 22 Oeste 38 Oeste 0 -- -- 54
2019-06-18 20:00:00 27.8 21 Oeste 37 Oeste 0 -- -- 46
2019-06-18 19:00:00 29.4 22 Oeste 36 Oeste 0 -- -- 38
2019-06-18 18:00:00 30.2 24 Oeste 35 Sudoeste 0 -- -- 32
2019-06-18 17:00:00 30.4 22 Sudoeste 35 Oeste 0 -- -- 31
2019-06-18 16:00:00 30 22 Oeste 37 Sudoeste 0 -- -- 35
2019-06-18 15:00:00 29.5 20 Oeste 31 Oeste 0 -- -- 35
2019-06-18 14:00:00 28 19 Oeste 31 Oeste 0 -- -- 39
2019-06-18 13:00:00 26.3 19 Oeste 28 Oeste 0 -- -- 43
2019-06-18 12:00:00 24.6 14 Noroeste 27 Oeste 0 -- -- 51
2019-06-18 11:00:00 22.6 21 Oeste 28 Oeste 0 -- -- 60
2019-06-18 10:00:00 20.8 16 Oeste 26 Oeste 0 -- -- 71
2019-06-18 09:00:00 18.1 15 Noroeste 24 Oeste 0 -- -- 83
2019-06-18 08:00:00 14.4 3 Noroeste 10 Norte 0 -- -- 93
2019-06-18 07:00:00 13.7 5 Noroeste 13 Noroeste 0 -- -- 93
2019-06-18 06:00:00 14.3 8 Noroeste 14 Noroeste 0 -- -- 92
2019-06-18 05:00:00 14.8 8 Noroeste 12 Noroeste 0 -- -- 93
2019-06-18 04:00:00 15.4 6 Noroeste 10 Noroeste 0 -- -- 93
2019-06-18 03:00:00 15.4 4 Noroeste 7 Noroeste 0 -- -- 93
2019-06-18 02:00:00 15.7 5 Noroeste 6 Noroeste 0 -- -- 94
2019-06-18 01:00:00 14.8 2 Noroeste 4 Noroeste 0 -- -- 88
2019-06-18 00:00:00 16.4 -- -- -- -- 0 -- -- 86
2019-06-17 23:00:00 17.4 0 Calma 4 Sudoeste 0 -- -- 87
2019-06-17 22:00:00 19.1 0 Calma 4 Nordeste 0 -- -- 85
2019-06-17 21:00:00 20.2 4 Nordeste 6 Este 0 -- -- 83
2019-06-17 20:00:00 21 4 Este 6 Sudeste 0 -- -- 82
2019-06-17 19:00:00 21.3 5 Sudeste 8 Sudeste 0 -- -- 79
2019-06-17 18:00:00 21.8 6 Sudeste 10 Sudeste 0 -- -- 79
2019-06-17 17:00:00 21.9 8 Sudeste 10 Sudeste 0 -- -- 79
2019-06-17 16:00:00 22.1 8 Sudeste 10 Sudeste 0 -- -- 76
2019-06-17 15:00:00 21.7 8 Sudeste 10 Sur 0 -- -- 78
2019-06-17 14:00:00 21.4 7 Sur 9 Sudeste 0 -- -- 78
2019-06-17 13:00:00 21.3 6 Sudeste 8 Sudeste 0 -- -- 78
2019-06-17 12:00:00 21.1 5 Sudeste 8 Sudeste 0 -- -- 78
2019-06-17 11:00:00 20.2 5 Sur 9 Sur -- -- -- 81
2019-06-17 10:00:00 18.5 3 Norte 13 Noroeste 0 -- -- 78
2019-06-17 09:00:00 15.7 11 Noroeste 19 Noroeste 0 -- -- 77
2019-06-17 08:00:00 13.1 13 Noroeste 18 Noroeste 0 -- -- 87
2019-06-17 07:00:00 12.9 12 Noroeste 19 Noroeste 0 -- -- 85
2019-06-17 06:00:00 13.4 12 Noroeste 19 Noroeste 0 -- -- 86
2019-06-17 05:00:00 13.8 11 Noroeste 17 Noroeste 0 -- -- 87
2019-06-17 04:00:00 14.6 10 Noroeste 13 Noroeste 0 -- -- 84
2019-06-17 03:00:00 15 9 Noroeste 14 Noroeste 0 -- -- 84
2019-06-17 02:00:00 15.7 9 Noroeste 13 Noroeste 0 -- -- 87
2019-06-17 01:00:00 16 8 Noroeste 12 Noroeste 0 -- -- 89
2019-06-17 00:00:00 14.8 3 Oeste 5 Oeste 0 -- -- 83
2019-06-16 23:00:00 17.1 2 Noroeste 3 Norte 0 -- -- 81
2019-06-16 22:00:00 19 0 Calma 5 Sur 0 -- -- 78
2019-06-16 21:00:00 20.5 5 Sur 9 Sur 0 -- -- 77
2019-06-16 20:00:00 21 6 Sur 8 Sur 0 -- -- 75
2019-06-16 19:00:00 21.6 5 Sudeste 10 Sudeste 0 -- -- 70
2019-06-16 18:00:00 22.2 8 Sur 12 Sudeste 0 -- -- 68
2019-06-16 17:00:00 21.8 5 Sudeste 9 Este 0 -- -- 75
2019-06-16 16:00:00 21.8 6 Sudeste 12 Este 0 -- -- 76
2019-06-16 15:00:00 21.6 6 Este 9 Este 0 -- -- 79
2019-06-16 14:00:00 20.8 5 Este 11 Este 0 -- -- 81
2019-06-16 13:00:00 21.6 6 Nordeste 12 Nordeste 0 -- -- 78
2019-06-16 12:00:00 19.1 6 Nordeste 14 Nordeste 0 -- -- 84
2019-06-16 11:00:00 19 6 Nordeste 13 Nordeste 0 -- -- 84
2019-06-16 10:00:00 19.3 5 Nordeste 11 Nordeste 0 -- -- 82
2019-06-16 09:00:00 17.9 5 Norte 10 Norte 0 -- -- 86
2019-06-16 08:00:00 15.6 3 Noroeste 9 Noroeste 0 -- -- 85
2019-06-16 07:00:00 15.7 5 Norte 10 Norte 0 -- -- 82
2019-06-16 06:00:00 15.7 2 Noroeste 8 Norte 0 -- -- 83
2019-06-16 05:00:00 16.3 4 Noroeste 10 Noroeste 0 -- -- 83
2019-06-16 04:00:00 15.3 7 Noroeste 9 Noroeste 0 -- -- 83
2019-06-16 03:00:00 14.6 0 Calma 4 Noroeste 0 -- -- 74
2019-06-16 02:00:00 17.9 3 Norte 10 Norte 0 -- -- 65
2019-06-16 01:00:00 18.4 8 Noroeste 11 Noroeste 0 -- -- 69
2019-06-16 00:00:00 19.5 4 Sudoeste 10 Sudoeste 0 -- -- 62
2019-06-15 23:00:00 19.9 6 Sur 12 Oeste 0 -- -- 64
2019-06-15 22:00:00 19.9 0 Calma 14 Sur 0 -- -- 69
2019-06-15 21:00:00 21.1 2 Sudeste 18 Nordeste 0 -- -- 69
2019-06-15 20:00:00 21.6 13 Nordeste 25 Sur 0 -- -- 68
2019-06-15 19:00:00 24.7 18 Sur 28 Sur 0 -- -- 52
2019-06-15 18:00:00 23.9 14 Sur 31 Sur 0 -- -- 57
2019-06-15 17:00:00 23.7 22 Sur 33 Sur 0 -- -- 55
2019-06-15 16:00:00 22.9 20 Sur 32 Sur 0 -- -- 60
2019-06-15 15:00:00 23 22 Sudeste 26 Sudeste 0 -- -- 61
2019-06-15 14:00:00 26.7 7 Nordeste 22 Norte 0 -- -- 39
2019-06-15 13:00:00 27.5 10 Oeste 27 Oeste 0 -- -- 33
2019-06-15 12:00:00 26 10 Noroeste 23 Sudoeste 0 -- -- 35
2019-06-15 11:00:00 24.2 10 Noroeste 22 Oeste 0 -- -- 41
2019-06-15 10:00:00 21.9 12 Oeste 23 Noroeste 0 -- -- 49
2019-06-15 09:00:00 19.5 13 Noroeste 22 Oeste 0 -- -- 58
2019-06-15 08:00:00 17.1 10 Noroeste 25 Noroeste 0 -- -- 70
2019-06-15 07:00:00 16.3 14 Noroeste 33 Oeste 0 -- -- 72
2019-06-15 06:00:00 16 20 Noroeste 34 Oeste 0 -- -- 77
2019-06-15 05:00:00 16 17 Oeste 28 Oeste 0 -- -- 77
2019-06-15 04:00:00 16.3 14 Oeste 26 Oeste 0 -- -- 74
2019-06-15 03:00:00 16.7 16 Oeste 34 Oeste 0 -- -- 72
2019-06-15 02:00:00 16.9 21 Noroeste 42 Oeste 0 -- -- 70
2019-06-15 01:00:00 17 25 Oeste 44 Oeste 0 -- -- 66
2019-06-15 00:00:00 17.5 23 Oeste 48 Oeste 0 -- -- 60
2019-06-14 23:00:00 18 28 Oeste 46 Oeste 0 -- -- 63
2019-06-14 22:00:00 18.8 18 Oeste 31 Oeste 0 -- -- 57
2019-06-14 21:00:00 21 17 Oeste 38 Oeste 0 -- -- 49
2019-06-14 20:00:00 22.4 22 Oeste 39 Oeste 0 -- -- 45
2019-06-14 19:00:00 23.4 16 Oeste 36 Oeste 0 -- -- 41
2019-06-14 18:00:00 23.5 24 Oeste 37 Oeste 0 -- -- 42
2019-06-14 17:00:00 23.9 25 Oeste 44 Oeste 0 -- -- 40
2019-06-14 16:00:00 24.3 26 Oeste 46 Oeste 0 -- -- 38
2019-06-14 15:00:00 23.8 31 Oeste 53 Oeste 0 -- -- 39
2019-06-14 14:00:00 22.7 26 Oeste 43 Oeste 0 -- -- 47
2019-06-14 13:00:00 21 27 Oeste 40 Oeste 0 -- -- 59
2019-06-14 12:00:00 21.7 24 Oeste 42 Oeste 0 -- -- 56
2019-06-14 11:00:00 19.9 23 Oeste 39 Oeste 0 -- -- 59
2019-06-14 10:00:00 18.4 20 Oeste 35 Sudoeste 0 -- -- 69
2019-06-14 09:00:00 18.4 17 Oeste 28 Sudoeste 0 -- -- 66
2019-06-14 08:00:00 17.2 15 Oeste 27 Oeste 0 -- -- 71
2019-06-14 07:00:00 16.7 15 Oeste 32 Oeste 0 -- -- 73
2019-06-14 06:00:00 16.8 10 Oeste 30 Oeste 0 -- -- 74
2019-06-14 05:00:00 17.4 21 Oeste 31 Oeste 0 -- -- 74
2019-06-14 04:00:00 18.2 16 Oeste 26 Sudoeste 0 -- -- 77
2019-06-14 03:00:00 18.9 12 Oeste 23 Oeste 0 -- -- 73
2019-06-14 02:00:00 18.7 12 Oeste 18 Oeste 0 -- -- 70
2019-06-14 01:00:00 18.6 10 Oeste 14 Oeste 0 -- -- 79
2019-06-14 00:00:00 19.6 3 Sudoeste 10 Sur 0 -- -- 86
2019-06-13 23:00:00 19.9 4 Sur 7 Oeste 0 -- -- 86
2019-06-13 22:00:00 19.9 5 Sudoeste 8 Sudeste 0 -- -- 85
2019-06-13 21:00:00 21 4 Este 5 Este 0 -- -- 81
2019-06-13 20:00:00 22.1 2 Sudeste 5 Este 0 -- -- 76
2019-06-13 19:00:00 22.2 3 Este 8 Este 0 -- -- 77
2019-06-13 18:00:00 23 5 Este 8 Este 0 -- -- 75
2019-06-13 17:00:00 22.8 7 Este 12 Este 0 -- -- 76
2019-06-13 16:00:00 23.4 6 Este 13 Este 0 -- -- 75
2019-06-13 15:00:00 23.2 8 Este 13 Este 0 -- -- 77
2019-06-13 14:00:00 20.9 8 Nordeste 16 Este 0 -- -- 84
2019-06-13 13:00:00 20.4 13 Nordeste 18 Nordeste 0 -- -- 84
2019-06-13 12:00:00 21.4 8 Nordeste 18 Nordeste 0 -- -- 80
2019-06-13 11:00:00 19.5 13 Nordeste 20 Nordeste 0 -- -- 88
2019-06-13 10:00:00 19 8 Nordeste 19 Nordeste 0 -- -- 89
2019-06-13 09:00:00 18.2 14 Nordeste 22 Nordeste 0 -- -- 91
2019-06-13 08:00:00 18.1 9 Nordeste 18 Este 0 -- -- 90
2019-06-13 07:00:00 17.7 7 Nordeste 17 Nordeste 0 -- -- 92
2019-06-13 06:00:00 17.3 3 Nordeste 10 Nordeste 0 -- -- 94
2019-06-13 05:00:00 17.6 5 Nordeste 13 Nordeste 0 -- -- 93
2019-06-13 04:00:00 17.8 7 Nordeste 17 Este 0 -- -- 93
2019-06-13 03:00:00 17.9 7 Este 16 Este 0 -- -- 93
2019-06-13 02:00:00 17.4 8 Nordeste 18 Nordeste 0 -- -- 93
2019-06-13 01:00:00 17.4 9 Nordeste 21 Nordeste 0 -- -- 94
2019-06-13 00:00:00 17.7 13 Nordeste 21 Nordeste 0 -- -- 93
2019-06-12 23:00:00 17.8 13 Nordeste 19 Nordeste 0 -- -- 92
2019-06-12 22:00:00 18 11 Nordeste 16 Nordeste 0 -- -- 90
2019-06-12 21:00:00 18.8 8 Nordeste 15 Nordeste 0 -- -- 87
2019-06-12 20:00:00 19.5 11 Nordeste 18 Norte 0 -- -- 83
2019-06-12 19:00:00 19.8 12 Nordeste 17 Nordeste 0 -- -- 82
2019-06-12 18:00:00 19.9 10 Nordeste 15 Nordeste 0 -- -- 83
2019-06-12 17:00:00 20.1 10 Nordeste 16 Nordeste 0 -- -- 81
2019-06-12 16:00:00 20 11 Nordeste 17 Nordeste 0 -- -- 80
2019-06-12 15:00:00 20.6 9 Nordeste 21 Nordeste 0 -- -- 77
2019-06-12 14:00:00 20.5 10 Nordeste 23 Nordeste 0 -- -- 78
2019-06-12 13:00:00 19.9 17 Nordeste 26 Nordeste 0 -- -- 78
2019-06-12 12:00:00 19.3 16 Nordeste 22 Nordeste 0 -- -- 80
2019-06-12 11:00:00 19.1 14 Nordeste 24 Nordeste 0 -- -- 82
2019-06-12 10:00:00 18.8 17 Nordeste 26 Nordeste 0 -- -- 83
2019-06-12 09:00:00 17.8 18 Nordeste 33 Nordeste 0 -- -- 89
2019-06-12 08:00:00 17.4 21 Nordeste 36 Nordeste 0 -- -- 90
2019-06-12 07:00:00 17.5 24 Nordeste 39 Nordeste 0 -- -- 91
2019-06-12 06:00:00 17.6 24 Nordeste 42 Este 0 -- -- 90
2019-06-12 05:00:00 17.7 24 Nordeste 34 Nordeste 0 -- -- 89
2019-06-12 04:00:00 18.9 17 Norte 33 Nordeste 0 -- -- 72
2019-06-12 03:00:00 19.6 16 Noroeste 35 Oeste 0 -- -- 64
2019-06-12 02:00:00 19.4 17 Oeste 32 Noroeste 0 -- -- 65
2019-06-12 01:00:00 19.9 17 Oeste 35 Oeste 0 -- -- 63
2019-06-12 00:00:00 19.7 17 Oeste 35 Oeste 0 -- -- 67
2019-06-11 23:00:00 19.8 24 Oeste 38 Oeste 0 -- -- 71
2019-06-11 22:00:00 20.8 27 Oeste 41 Oeste 0 -- -- 66
2019-06-11 21:00:00 23 27 Oeste 47 Oeste 0 -- -- 57
2019-06-11 20:00:00 24.7 30 Oeste 44 Oeste 0 -- -- 52
2019-06-11 19:00:00 26 26 Oeste 45 Oeste 0 -- -- 48
2019-06-11 18:00:00 26.6 30 Oeste 48 Sudoeste 0 -- -- 46
2019-06-11 17:00:00 26.9 31 Oeste 49 Oeste 0 -- -- 45
2019-06-11 16:00:00 27 29 Oeste 49 Sudoeste 0 -- -- 45
2019-06-11 15:00:00 26.3 29 Oeste 44 Oeste 0 -- -- 46
2019-06-11 14:00:00 26.1 24 Oeste 44 Sudoeste 0 -- -- 46
2019-06-11 13:00:00 25.2 32 Oeste 48 Oeste 0 -- -- 46
2019-06-11 12:00:00 24 29 Oeste 47 Oeste 0 -- -- 49
2019-06-11 11:00:00 22.7 28 Oeste 49 Oeste 0 -- -- 52
2019-06-11 10:00:00 21 24 Oeste 40 Oeste 0 -- -- 55
2019-06-11 09:00:00 19.7 20 Oeste 38 Sudoeste 0 -- -- 56
2019-06-11 08:00:00 17.5 5 Oeste 13 Oeste 0 -- -- 78
2019-06-11 07:00:00 16.9 3 Oeste 35 Oeste 0 -- -- 79
2019-06-11 06:00:00 17.2 28 Oeste 39 Oeste 0 -- -- 81
2019-06-11 05:00:00 17.3 22 Oeste 35 Oeste 0 -- -- 79
2019-06-11 04:00:00 17.6 22 Oeste 32 Oeste 0 -- -- 73
2019-06-11 03:00:00 17.9 14 Oeste 23 Oeste 0 -- -- 63
2019-06-11 02:00:00 17.4 12 Oeste 27 Oeste 0 -- -- 67
2019-06-11 01:00:00 17.8 17 Oeste 35 Oeste 0 -- -- 74
2019-06-11 00:00:00 18.3 25 Oeste 39 Oeste 0 -- -- 67
2019-06-10 23:00:00 18.8 25 Oeste 45 Oeste 0 -- -- 65
2019-06-10 22:00:00 20 28 Oeste 49 Oeste 0 -- -- 60
2019-06-10 21:00:00 22.1 31 Oeste 50 Oeste 0 -- -- 52
2019-06-10 20:00:00 24.1 31 Oeste 51 Oeste 0 -- -- 48
2019-06-10 19:00:00 25.4 30 Oeste 50 Oeste 0 -- -- 49
2019-06-10 18:00:00 26.2 33 Oeste 51 Oeste 0 -- -- 46
2019-06-10 17:00:00 26.5 37 Sudoeste 53 Sudoeste 0 -- -- 47
2019-06-10 16:00:00 26.5 36 Sudoeste 54 Sudoeste 0 -- -- 47
2019-06-10 15:00:00 26.8 33 Sudoeste 55 Sudoeste 0 -- -- 48
2019-06-10 14:00:00 26.8 23 Oeste 37 Oeste 0 -- -- 46
2019-06-10 13:00:00 26 25 Oeste 46 Sudoeste 0 -- -- 43
2019-06-10 12:00:00 24.7 26 Oeste 38 Oeste 0 -- -- 50
2019-06-10 11:00:00 22.7 25 Oeste 39 Oeste 0 -- -- 58
2019-06-10 10:00:00 20.9 21 Oeste 35 Oeste 0 -- -- 65
2019-06-10 09:00:00 19.4 16 Oeste 28 Oeste 0 -- -- 70
2019-06-10 08:00:00 17.3 16 Oeste 27 Oeste 0 -- -- 77
2019-06-10 07:00:00 16.8 18 Oeste 28 Oeste 0 -- -- 79
2019-06-10 06:00:00 17.4 16 Oeste 30 Oeste 0 -- -- 79
2019-06-10 05:00:00 17.8 20 Oeste 34 Oeste 0 -- -- 80
2019-06-10 04:00:00 17.6 24 Oeste 36 Oeste 0 -- -- 82
2019-06-10 03:00:00 17.8 26 Oeste 37 Oeste 0 -- -- 81
2019-06-10 02:00:00 17.9 23 Oeste 36 Oeste 0 -- -- 78
2019-06-10 01:00:00 17.9 22 Oeste 32 Oeste 0 -- -- 69
2019-06-10 00:00:00 18.6 11 Oeste 32 Oeste 0 -- -- 58
2019-06-09 23:00:00 19.2 22 Oeste 37 Oeste 0 -- -- 53
2019-06-09 22:00:00 20.7 13 Oeste 40 Oeste 0 -- -- 45
2019-06-09 21:00:00 23.3 23 Oeste 40 Noroeste 0 -- -- 39
2019-06-09 20:00:00 25.6 27 Oeste 48 Oeste 0 -- -- 33
2019-06-09 19:00:00 27.2 30 Oeste 43 Oeste 0 -- -- 31
2019-06-09 18:00:00 27.7 27 Oeste 44 Oeste 0 -- -- 39
2019-06-09 17:00:00 28.1 28 Oeste 43 Oeste 0 -- -- 36
2019-06-09 16:00:00 27.6 24 Oeste 41 Oeste 0 -- -- 38
2019-06-09 15:00:00 27.2 26 Oeste 44 Sudoeste 0 -- -- 40
2019-06-09 14:00:00 26.7 26 Oeste 42 Oeste 0 -- -- 49
2019-06-09 13:00:00 25.9 23 Oeste 36 Sudoeste 0 -- -- 53
2019-06-09 12:00:00 24.8 16 Oeste 31 Oeste 0 -- -- 60
2019-06-09 11:00:00 21.5 10 Sudeste 13 Sudeste 0 -- -- 79
2019-06-09 10:00:00 20.7 7 Sudeste 10 Sur 0 -- -- 85
2019-06-09 09:00:00 19.5 3 Norte 6 Noroeste 0 -- -- 91
2019-06-09 08:00:00 18 3 Oeste 4 Oeste 0 -- -- 93
2019-06-09 07:00:00 18.1 0 Calma 5 Norte 0 -- -- 91
2019-06-09 06:00:00 18.6 3 Norte 6 Nordeste 0 -- -- 93
2019-06-09 05:00:00 18.6 3 Este 10 Este 0 -- -- 92
2019-06-09 04:00:00 18.7 4 Nordeste 10 Nordeste 0 -- -- 91
2019-06-09 03:00:00 18.9 6 Nordeste 11 Nordeste 0 -- -- 91
2019-06-09 02:00:00 18.6 7 Nordeste 13 Nordeste 0 -- -- 92
2019-06-09 01:00:00 18.8 7 Nordeste 11 Nordeste 0 -- -- 91
2019-06-09 00:00:00 18.9 5 Nordeste 10 Nordeste 0 -- -- 91
2019-06-08 23:00:00 18.9 5 Nordeste 8 Nordeste 0 -- -- 91
2019-06-08 22:00:00 19 4 Nordeste 10 Nordeste 0 -- -- 90
2019-06-08 21:00:00 19.4 6 Nordeste 12 Nordeste 0 -- -- 88
2019-06-08 20:00:00 20.5 5 Este 16 Nordeste 0 -- -- 85
2019-06-08 19:00:00 20.5 9 Nordeste 13 Norte 0 -- -- 84
2019-06-08 18:00:00 23.1 6 Este 19 Este 0 -- -- 73
2019-06-08 17:00:00 21.9 8 Este 18 Nordeste 0 -- -- 81
2019-06-08 16:00:00 21 10 Nordeste 17 Nordeste 0 -- -- 81
2019-06-08 15:00:00 20.8 8 Nordeste 19 Nordeste 0 -- -- 80
2019-06-08 14:00:00 20.6 15 Nordeste 22 Nordeste 0 -- -- 82
2019-06-08 13:00:00 21.8 13 Este 24 Este 0 -- -- 78
2019-06-08 12:00:00 21.3 9 Sur 12 Sur 0 -- -- 76
2019-06-08 11:00:00 21.3 10 Sur 12 Sur 0 -- -- 77
2019-06-08 10:00:00 20.5 9 Sudeste 16 Sudeste 0 -- -- 78
2019-06-08 09:00:00 19.7 9 Sudeste 15 Sudeste 0 -- -- 83
2019-06-08 08:00:00 18.1 5 Nordeste 17 Nordeste 0 -- -- 89
2019-06-08 07:00:00 15.7 6 Norte 14 Noroeste 0 -- -- 65
2019-06-08 06:00:00 15.4 8 Noroeste 14 Noroeste 0 -- -- 61
2019-06-08 05:00:00 16.4 8 Noroeste 12 Noroeste 0 -- -- 64
2019-06-08 04:00:00 16.6 2 Noroeste 6 Noroeste 0 -- -- 62
2019-06-08 03:00:00 17.6 4 Noroeste 9 Oeste 0 -- -- 61
2019-06-08 02:00:00 19.1 4 Oeste 18 Noroeste 0 -- -- 53
2019-06-08 01:00:00 19.7 10 Noroeste 21 Oeste 0 -- -- 53
2019-06-08 00:00:00 20.7 13 Noroeste 27 Oeste 0 -- -- 49
2019-06-07 23:00:00 21.2 18 Oeste 30 Oeste 0 -- -- 48
2019-06-07 22:00:00 22.5 20 Oeste 28 Oeste 0 -- -- 43
2019-06-07 21:00:00 25.1 17 Oeste 37 Oeste 0 -- -- 42
2019-06-07 20:00:00 26.9 23 Sudoeste 35 Sudoeste 0 -- -- 39
2019-06-07 19:00:00 29.5 18 Oeste 33 Oeste 0 -- -- 27
2019-06-07 18:00:00 29.4 17 Oeste 40 Oeste 0 -- -- 31
2019-06-07 17:00:00 29 20 Oeste 39 Oeste 0 -- -- 35
2019-06-07 16:00:00 28.6 18 Oeste 40 Oeste 0 -- -- 38
2019-06-07 15:00:00 27.8 18 Oeste 37 Oeste 0 -- -- 42
2019-06-07 14:00:00 26.6 14 Noroeste 33 Oeste 0 -- -- 47
2019-06-07 13:00:00 25.8 17 Oeste 27 Noroeste 0 -- -- 48
2019-06-07 12:00:00 24.1 15 Noroeste 31 Noroeste 0 -- -- 55
2019-06-07 11:00:00 22.4 18 Noroeste 33 Noroeste 0 -- -- 64
2019-06-07 10:00:00 20.6 14 Oeste 25 Oeste 0 -- -- 77
2019-06-07 09:00:00 18.9 6 Oeste 19 Oeste 0 -- -- 82
2019-06-07 08:00:00 18 14 Oeste 27 Oeste 0 -- -- 83
2019-06-07 07:00:00 17.4 15 Oeste 29 Oeste 0 -- -- 84
2019-06-07 06:00:00 16.6 8 Oeste 18 Oeste 0 -- -- 84
2019-06-07 05:00:00 16.7 14 Oeste 28 Oeste 0 -- -- 82
2019-06-07 04:00:00 16.9 21 Oeste 32 Oeste 0 -- -- 81
2019-06-07 03:00:00 16.6 11 Oeste 19 Oeste 0 -- -- 80
2019-06-07 02:00:00 17.3 10 Oeste 26 Noroeste 0 -- -- 77
2019-06-07 01:00:00 17.5 13 Oeste 24 Noroeste 0 -- -- 74
2019-06-07 00:00:00 17.8 13 Oeste 44 Oeste 0 -- -- 71
2019-06-06 23:00:00 18.4 26 Oeste 40 Oeste 0 -- -- 63
2019-06-06 22:00:00 19.7 22 Oeste 39 Oeste 0 -- -- 48
2019-06-06 21:00:00 22 23 Oeste 41 Oeste 0 -- -- 35
2019-06-06 20:00:00 23.9 31 Oeste 45 Oeste 0 -- -- 29
2019-06-06 19:00:00 25.7 30 Oeste 41 Oeste 0 -- -- 29
2019-06-06 18:00:00 27.2 27 Oeste 42 Oeste 0 -- -- 29
2019-06-06 17:00:00 28.7 23 Oeste 43 Oeste 0 -- -- 28
2019-06-06 16:00:00 27.3 16 Sudoeste 49 Sudoeste 0 -- -- 32
2019-06-06 15:00:00 22.8 22 Sur 39 Sur 0 -- -- 57
2019-06-06 14:00:00 23 27 Sur 41 Sur 0 -- -- 55
2019-06-06 13:00:00 26.3 14 Oeste 24 Sudoeste 0 -- -- 30
2019-06-06 12:00:00 26 13 Noroeste 22 Oeste 0 -- -- 33
2019-06-06 11:00:00 24.1 13 Oeste 23 Oeste 0 -- -- 41
2019-06-06 10:00:00 21.6 13 Noroeste 24 Oeste 0 -- -- 53
2019-06-06 09:00:00 19 15 Oeste 23 Oeste 0 -- -- 65
2019-06-06 08:00:00 16.7 14 Noroeste 28 Oeste 0 -- -- 75
2019-06-06 07:00:00 16.1 19 Oeste 29 Oeste 0 -- -- 80
2019-06-06 06:00:00 16 15 Noroeste 25 Oeste 0 -- -- 81
2019-06-06 05:00:00 16.1 18 Oeste 25 Oeste 0 -- -- 78
2019-06-06 04:00:00 16.2 15 Oeste 24 Oeste 0 -- -- 75
2019-06-06 03:00:00 17 19 Oeste 26 Oeste 0 -- -- 72
2019-06-06 02:00:00 16.9 17 Oeste 26 Oeste 0 -- -- 72
2019-06-06 01:00:00 17 19 Oeste 26 Oeste 0 -- -- 72
2019-06-06 00:00:00 17.7 19 Oeste 39 Oeste 0 -- -- 70
2019-06-05 23:00:00 18.5 24 Oeste 38 Oeste 0 -- -- 67
2019-06-05 22:00:00 19.6 27 Oeste 43 Oeste 0 -- -- 61
2019-06-05 21:00:00 22 27 Oeste 42 Oeste 0 -- -- 51
2019-06-05 20:00:00 24 22 Oeste 39 Sudoeste 0 -- -- 44
2019-06-05 19:00:00 25.7 14 Noroeste 33 Noroeste 0 -- -- 38
2019-06-05 18:00:00 26.4 14 Noroeste 35 Noroeste 0 -- -- 31
2019-06-05 17:00:00 26.1 18 Noroeste 35 Noroeste 0 -- -- 32
2019-06-05 16:00:00 25.9 19 Noroeste 43 Oeste 0 -- -- 30
2019-06-05 15:00:00 25.4 19 Noroeste 40 Noroeste 0 -- -- 33
2019-06-05 14:00:00 24.6 21 Noroeste 44 Noroeste 0 -- -- 34
2019-06-05 13:00:00 23.5 22 Oeste 49 Oeste 0 -- -- 37
2019-06-05 12:00:00 22.2 23 Noroeste 53 Oeste 0 -- -- 40
2019-06-05 11:00:00 21.1 21 Noroeste 55 Oeste 0 -- -- 46
2019-06-05 10:00:00 19.4 23 Noroeste 46 Oeste 0 -- -- 50
2019-06-05 09:00:00 17.9 26 Oeste 47 Oeste 0 -- -- 56
2019-06-05 08:00:00 16.9 20 Oeste 37 Noroeste 0 -- -- 59
2019-06-05 07:00:00 16.5 16 Oeste 26 Oeste 0 -- -- 63
2019-06-05 06:00:00 17.5 15 Noroeste 28 Oeste 0 -- -- 66
2019-06-05 05:00:00 17.9 16 Oeste 28 Oeste 0 -- -- 72
2019-06-05 04:00:00 18.8 16 Oeste 29 Oeste 0 -- -- 80
2019-06-05 03:00:00 19 15 Oeste 26 Sudoeste 0 -- -- 82
2019-06-05 02:00:00 19.3 14 Oeste 28 Oeste 0 -- -- 84
2019-06-05 01:00:00 19.7 18 Oeste 28 Oeste 0 -- -- 82
2019-06-05 00:00:00 19.9 17 Oeste 35 Oeste 0 -- -- 80
2019-06-04 23:00:00 20.3 17 Oeste 40 Oeste 0 -- -- 74
2019-06-04 22:00:00 21.3 27 Oeste 40 Oeste 0 -- -- 70
2019-06-04 21:00:00 24.2 26 Oeste 41 Oeste 0 -- -- 61
2019-06-04 20:00:00 26.7 25 Oeste 45 Oeste 0 -- -- 43
2019-06-04 19:00:00 28.2 32 Oeste 48 Oeste 0 -- -- 38
2019-06-04 18:00:00 30.2 30 Oeste 43 Oeste 0 -- -- 37
2019-06-04 17:00:00 31.6 28 Oeste 39 Oeste 0 -- -- 37
2019-06-04 16:00:00 31.9 17 Oeste 36 Oeste 0 -- -- 39
2019-06-04 15:00:00 31.3 20 Oeste 36 Oeste 0 -- -- 39
2019-06-04 14:00:00 30.2 15 Noroeste 31 Oeste 0 -- -- 44
2019-06-04 13:00:00 29.3 21 Oeste 33 Oeste 0 -- -- 41
2019-06-04 12:00:00 28.1 21 Sudoeste 39 Sudoeste 0 -- -- 42
2019-06-04 11:00:00 21.5 9 Sudeste 30 Sur 0 -- -- 72
2019-06-04 10:00:00 20.1 10 Noroeste 17 Noroeste 0 -- -- 61
2019-06-04 09:00:00 16.3 7 Norte 16 Noroeste 0 -- -- 70
2019-06-04 08:00:00 13.9 10 Noroeste 17 Noroeste 0 -- -- 79
2019-06-04 07:00:00 12.7 8 Noroeste 16 Noroeste 0 -- -- 87
2019-06-04 06:00:00 12.8 6 Noroeste 13 Noroeste 0 -- -- 84
2019-06-04 05:00:00 13.5 9 Noroeste 14 Noroeste 0 -- -- 84
2019-06-04 04:00:00 13.8 12 Noroeste 18 Noroeste 0 -- -- 86
2019-06-04 03:00:00 14.4 10 Noroeste 17 Norte 0 -- -- 89
2019-06-04 02:00:00 15.2 9 Noroeste 13 Noroeste 0 -- -- 90
2019-06-04 01:00:00 15.6 7 Noroeste 10 Noroeste 0 -- -- 91
2019-06-04 00:00:00 16.7 4 Noroeste 6 Noroeste 0 -- -- 92
2019-06-03 23:00:00 16.2 4 Oeste 5 Oeste 0 -- -- 85
2019-06-03 22:00:00 18.8 3 Sudoeste 6 Sur 0 -- -- 81
2019-06-03 21:00:00 20.7 6 Sur 9 Sur 0 -- -- 82
2019-06-03 20:00:00 21.1 3 Sudeste 9 Sur 0 -- -- 81
2019-06-03 19:00:00 21.5 8 Sur 11 Sur 0 -- -- 80
2019-06-03 18:00:00 21.8 8 Sur 13 Sur 0 -- -- 79
2019-06-03 17:00:00 22.4 7 Sudeste 12 Sudeste 0 -- -- 77
2019-06-03 16:00:00 22 8 Sudeste 11 Sudeste 0 -- -- 78
2019-06-03 15:00:00 22 8 Sudeste 12 Sudeste 0 -- -- 77
2019-06-03 14:00:00 21.8 9 Sudeste 12 Sudeste 0 -- -- 77
2019-06-03 13:00:00 21.5 8 Sudeste 13 Sudeste 0 -- -- 80
2019-06-03 12:00:00 21.5 7 Sudeste 9 Sudeste 0 -- -- 81
2019-06-03 11:00:00 21.2 5 Este 8 Este 0 -- -- 80
2019-06-03 10:00:00 19.7 4 Noroeste 13 Noroeste 0 -- -- 77
2019-06-03 09:00:00 15.7 10 Noroeste 15 Noroeste 0 -- -- 82
2019-06-03 08:00:00 13 11 Noroeste 18 Noroeste 0 -- -- 88
2019-06-03 07:00:00 12.2 12 Noroeste 16 Noroeste 0 -- -- 91
2019-06-03 06:00:00 12.8 11 Noroeste 16 Noroeste 0 -- -- 90
2019-06-03 05:00:00 13.1 11 Noroeste 16 Noroeste 0 -- -- 92
2019-06-03 04:00:00 14 9 Noroeste 12 Noroeste 0 -- -- 92
2019-06-03 03:00:00 14.2 3 Noroeste 8 Noroeste 0 -- -- 91
2019-06-03 02:00:00 14.6 3 Noroeste 6 Noroeste 0 -- -- 91
2019-06-03 01:00:00 15.2 3 Norte 6 Noroeste 0 -- -- 89
2019-06-03 00:00:00 16.1 0 Calma 4 Nordeste 0 -- -- 84
2019-06-02 23:00:00 19 3 Este 10 Nordeste 0 -- -- 83
2019-06-02 22:00:00 19.5 6 Nordeste 14 Nordeste 0 -- -- 85
2019-06-02 21:00:00 20.5 11 Nordeste 15 Nordeste 0 -- -- 81
2019-06-02 20:00:00 22.6 5 Este 12 Este 0 -- -- 75
2019-06-02 19:00:00 23.3 6 Este 15 Este 0 -- -- 71
2019-06-02 18:00:00 23.3 8 Este 15 Este 0 -- -- 71
2019-06-02 17:00:00 22.9 10 Este 14 Este 0 -- -- 73
2019-06-02 16:00:00 23.1 8 Este 15 Este 0 -- -- 72
2019-06-02 15:00:00 22.7 14 Este 23 Sudeste 0 -- -- 73
2019-06-02 14:00:00 22.4 13 Este 17 Este 0 -- -- 74
2019-06-02 13:00:00 22.3 12 Este 19 Este 0 -- -- 74
2019-06-02 12:00:00 22.2 13 Este 22 Este 0 -- -- 73
2019-06-02 11:00:00 21.9 17 Este 24 Este 0 -- -- 73
2019-06-02 10:00:00 21.2 19 Este 26 Este 0 -- -- 78
2019-06-02 09:00:00 20.9 12 Este 22 Este 0 -- -- 76
2019-06-02 08:00:00 19.3 9 Este 23 Este 0 -- -- 83
2019-06-02 07:00:00 18.6 13 Nordeste 24 Este 0 -- -- 80
2019-06-02 06:00:00 18.8 13 Nordeste 23 Nordeste 0 -- -- 75
2019-06-02 05:00:00 18.9 12 Nordeste 26 Nordeste 0 -- -- 79
2019-06-02 04:00:00 18.8 9 Nordeste 21 Nordeste 0 -- -- 81
2019-06-02 03:00:00 18.7 10 Este 19 Este 0 -- -- 81
2019-06-02 02:00:00 19.1 9 Este 20 Este 0 -- -- 81
2019-06-02 01:00:00 19 8 Este 18 Este 0 -- -- 81
2019-06-02 00:00:00 19.1 8 Este 19 Este 0 -- -- 83
2019-06-01 23:00:00 19.4 10 Este 19 Nordeste 0 -- -- 83
2019-06-01 22:00:00 19.8 9 Este 20 Sudeste 0 -- -- 82
2019-06-01 21:00:00 21 9 Este 17 Este 0 -- -- 78
2019-06-01 20:00:00 21.8 11 Este 21 Este 0 -- -- 75
2019-06-01 19:00:00 22.9 9 Este 23 Este 0 -- -- 71
2019-06-01 18:00:00 22.5 12 Este 24 Este 0 -- -- 72
2019-06-01 17:00:00 23.3 11 Este 22 Este 0 -- -- 68
2019-06-01 16:00:00 22.6 18 Este 28 Este 0 -- -- 71
2019-06-01 15:00:00 22.7 21 Este 26 Este 0 -- -- 71
2019-06-01 14:00:00 22.7 16 Este 22 Este 0 -- -- 72
2019-06-01 13:00:00 22.3 15 Este 22 Este 0 -- -- 75
2019-06-01 12:00:00 21.6 19 Este 27 Este 0 -- -- 77
2019-06-01 11:00:00 21.1 22 Este 33 Este 0 -- -- 78
2019-06-01 10:00:00 21.4 14 Este 27 Este 0 -- -- 75
2019-06-01 09:00:00 20.1 23 Este 30 Este 0 -- -- 80
2019-06-01 08:00:00 18.6 11 Este 22 Este 0 -- -- 87
2019-06-01 07:00:00 18.2 12 Este 23 Nordeste 0 -- -- 87
2019-06-01 06:00:00 18.4 12 Nordeste 27 Nordeste 0 -- -- 86
2019-06-01 05:00:00 18.6 13 Nordeste 28 Nordeste 0 -- -- 84
2019-06-01 04:00:00 18.7 12 Nordeste 25 Este 0 -- -- 83
2019-06-01 03:00:00 18.7 13 Nordeste 24 Este 0 -- -- 84
2019-06-01 02:00:00 19 12 Este 24 Nordeste 0 -- -- 83
2019-06-01 01:00:00 19.1 12 Este 26 Este 0 -- -- 82
2019-06-01 00:00:00 19.2 13 Nordeste 24 Este 0 -- -- 82
2019-05-31 23:00:00 19.2 11 Este 23 Este 0 -- -- 82
2019-05-31 22:00:00 19.6 10 Este 19 Este 0 -- -- 81
2019-05-31 21:00:00 21.3 11 Este 21 Nordeste 0 -- -- 75
2019-05-31 20:00:00 22.3 8 Este 22 Este 0 -- -- 74
2019-05-31 19:00:00 22.6 10 Este 21 Este 0 -- -- 72
2019-05-31 18:00:00 23.6 10 Este 22 Este 0 -- -- 70
2019-05-31 17:00:00 24 12 Este 24 Nordeste 0 -- -- 67
2019-05-31 16:00:00 24.2 10 Nordeste 31 Este 0 -- -- 68
2019-05-31 15:00:00 23.6 11 Este 25 Este 0 -- -- 68
2019-05-31 14:00:00 23.3 14 Este 29 Este 0 -- -- 67
2019-05-31 13:00:00 22.8 15 Nordeste 30 Nordeste 0 -- -- 69
2019-05-31 12:00:00 22.4 16 Este 29 Nordeste 0 -- -- 69
2019-05-31 11:00:00 21.9 15 Nordeste 29 Nordeste 0 -- -- 71
2019-05-31 10:00:00 21 14 Nordeste 28 Este 0 -- -- 75
2019-05-31 09:00:00 19.9 15 Este 30 Este 0 -- -- 80
2019-05-31 08:00:00 18.5 15 Nordeste 31 Nordeste 0 -- -- 87
2019-05-31 07:00:00 18 15 Nordeste 33 Nordeste 0 -- -- 87
2019-05-31 06:00:00 18.1 15 Nordeste 28 Nordeste 0 -- -- 88
2019-05-31 05:00:00 18.2 13 Nordeste 26 Nordeste 0 -- -- 87
2019-05-31 04:00:00 18.5 12 Este 30 Este 0 -- -- 87
2019-05-31 03:00:00 18.5 15 Este 32 Nordeste 0 -- -- 85
2019-05-31 02:00:00 18.7 17 Este 29 Este 0 -- -- 84
2019-05-31 01:00:00 18.9 15 Este 33 Este 0 -- -- 82
2019-05-31 00:00:00 18.9 17 Este 35 Este 0 -- -- 83
2019-05-30 23:00:00 19 18 Este 37 Nordeste 0 -- -- 82
2019-05-30 22:00:00 19.3 18 Nordeste 35 Este 0 -- -- 82
2019-05-30 21:00:00 20.6 16 Este 30 Nordeste 0 -- -- 80
2019-05-30 20:00:00 21.8 14 Nordeste 27 Este 0 -- -- 76
2019-05-30 19:00:00 22.3 16 Nordeste 31 Este 0 -- -- 75
2019-05-30 18:00:00 22.7 16 Este 32 Nordeste 0 -- -- 73
2019-05-30 17:00:00 23.1 15 Este 32 Nordeste 0 -- -- 73
2019-05-30 16:00:00 22.4 18 Este 33 Nordeste 0 -- -- 75
2019-05-30 15:00:00 22.2 19 Este 36 Nordeste 0 -- -- 75
2019-05-30 14:00:00 22.9 18 Este 35 Nordeste 0 -- -- 73
2019-05-30 13:00:00 22.6 19 Nordeste 36 Nordeste 0 -- -- 76
2019-05-30 12:00:00 22 21 Nordeste 35 Nordeste 0 -- -- 77
2019-05-30 11:00:00 21.3 18 Nordeste 38 Nordeste 0 -- -- 80
2019-05-30 10:00:00 20.8 18 Este 33 Este 0 -- -- 84
2019-05-30 09:00:00 20 18 Este 36 Este 0 -- -- 84
2019-05-30 08:00:00 18.7 19 Nordeste 38 Este 0 -- -- 87
2019-05-30 07:00:00 18.5 19 Nordeste 40 Nordeste 0 -- -- 88
2019-05-30 06:00:00 18.7 22 Nordeste 40 Nordeste 0 -- -- 86
2019-05-30 05:00:00 18.8 23 Nordeste 38 Nordeste 0 -- -- 83
2019-05-30 04:00:00 18.8 20 Nordeste 35 Nordeste 0 -- -- 85
2019-05-30 03:00:00 18.9 18 Nordeste 35 Este 0 -- -- 87
2019-05-30 02:00:00 19 20 Nordeste 35 Nordeste 0 -- -- 87
2019-05-30 01:00:00 19.2 19 Nordeste 32 Nordeste 0 -- -- 90
2019-05-30 00:00:00 19.3 16 Nordeste 32 Este 0 -- -- 90
2019-05-29 23:00:00 19.5 15 Nordeste 28 Nordeste 0 -- -- 88
2019-05-29 22:00:00 19.8 11 Nordeste 21 Nordeste 0 -- -- 89
2019-05-29 21:00:00 21.2 9 Nordeste 21 Nordeste 0 -- -- 83
2019-05-29 20:00:00 22.5 10 Este 19 Este 0 -- -- 79
2019-05-29 19:00:00 23.6 10 Este 18 Nordeste 0 -- -- 73
2019-05-29 18:00:00 24.1 10 Este 21 Este 0 -- -- 70
2019-05-29 17:00:00 24.8 9 Este 21 Este 0 -- -- 69
2019-05-29 16:00:00 24.8 9 Este 22 Este 0 -- -- 68
2019-05-29 15:00:00 24.4 10 Este 27 Este 0 -- -- 67
2019-05-29 14:00:00 24.7 12 Este 26 Este 0 -- -- 64
2019-05-29 13:00:00 24.5 13 Nordeste 25 Nordeste 0 -- -- 67
2019-05-29 12:00:00 24 12 Nordeste 25 Este 0 -- -- 70
2019-05-29 11:00:00 23.1 12 Nordeste 23 Nordeste 0 -- -- 75
2019-05-29 10:00:00 22.3 12 Nordeste 24 Nordeste 0 -- -- 81
2019-05-29 09:00:00 21.1 12 Nordeste 23 Este 0 -- -- 85
2019-05-29 08:00:00 19.5 10 Nordeste 23 Nordeste 0 -- -- 92
2019-05-29 07:00:00 19.5 16 Nordeste 34 Nordeste 0 -- -- 91
2019-05-29 06:00:00 19.5 15 Nordeste 30 Nordeste 0 -- -- 86
2019-05-29 05:00:00 19.4 10 Este 24 Nordeste 0 -- -- 96
2019-05-29 04:00:00 19.8 12 Nordeste 30 Este 0 -- -- 96
2019-05-29 03:00:00 19.9 12 Nordeste 21 Nordeste 0 -- -- 96
2019-05-29 02:00:00 19.7 6 Nordeste 12 Nordeste 0 -- -- 95
2019-05-29 01:00:00 19.8 5 Nordeste 12 Nordeste 0 -- -- 95
2019-05-29 00:00:00 19.9 7 Nordeste 12 Nordeste 0 -- -- 95
2019-05-28 23:00:00 20 6 Nordeste 9 Nordeste 0 -- -- 93
2019-05-28 22:00:00 20.4 5 Nordeste 10 Norte 0 -- -- 92
2019-05-28 21:00:00 21.2 6 Nordeste 12 Nordeste 0 -- -- 89
2019-05-28 20:00:00 21.8 8 Nordeste 15 Nordeste 0 -- -- 88
2019-05-28 19:00:00 22.5 8 Nordeste 13 Nordeste 0 -- -- 86
2019-05-28 18:00:00 23.2 6 Nordeste 10 Este 0 -- -- 83
2019-05-28 17:00:00 23.5 5 Este 13 Nordeste 0 -- -- 82
2019-05-28 16:00:00 22.8 8 Nordeste 14 Nordeste 0 -- -- 84
2019-05-28 15:00:00 23.4 6 Nordeste 13 Nordeste 0 -- -- 82
2019-05-28 14:00:00 23.6 7 Nordeste 11 Nordeste 0 -- -- 81
2019-05-28 13:00:00 23.7 8 Este 12 Este 0 -- -- 77
2019-05-28 12:00:00 23.8 5 Este 9 Este 0 -- -- 77
2019-05-28 11:00:00 22.5 5 Este 9 Este 0 -- -- 73
2019-05-28 10:00:00 23 5 Este 9 Noroeste 0 -- -- 69
2019-05-28 09:00:00 19.8 4 Norte 10 Noroeste 0 -- -- 71
2019-05-28 08:00:00 16.1 8 Noroeste 12 Norte 0 -- -- 88
2019-05-28 07:00:00 15.4 3 Noroeste 7 Norte 0 -- -- 89
2019-05-28 06:00:00 16.1 4 Noroeste 7 Noroeste 0 -- -- 91
2019-05-28 05:00:00 16.2 3 Noroeste 5 Oeste 0 -- -- 91
2019-05-28 04:00:00 16.2 0 Calma 5 Sudoeste 0 -- -- 89
2019-05-28 03:00:00 17 2 Oeste 10 Nordeste 0 -- -- 84
2019-05-28 02:00:00 19.6 6 Nordeste 15 Nordeste 0 -- -- 89
2019-05-28 01:00:00 19.1 5 Noroeste 7 Noroeste 0 -- -- 80
2019-05-28 00:00:00 19.5 6 Sudeste 12 Noroeste 0 -- -- 84
2019-05-27 23:00:00 19 3 Sudeste 7 Sur 0 -- -- 84
2019-05-27 22:00:00 20.1 0 Calma 6 Nordeste 0 -- -- 78
2019-05-27 21:00:00 21.2 4 Nordeste 9 Nordeste 0 -- -- 80
2019-05-27 20:00:00 22.6 4 Este 9 Este 0 -- -- 79
2019-05-27 19:00:00 22.5 4 Este 8 Este 0 -- -- 78
2019-05-27 18:00:00 22.4 7 Sudeste 13 Sur 0 -- -- 76
2019-05-27 17:00:00 22.7 6 Sudeste 10 Sudeste 0 -- -- 77
2019-05-27 16:00:00 22.6 7 Sudeste 13 Sudeste 0 -- -- 77
2019-05-27 15:00:00 23 8 Sudeste 10 Sudeste 0 -- -- 75
2019-05-27 14:00:00 22.6 6 Sudeste 9 Sudeste 0 -- -- 74
2019-05-27 13:00:00 22.2 9 Sudeste 13 Sudeste 0 -- -- 71
2019-05-27 12:00:00 22.7 8 Este 11 Sudeste 0 -- -- 67
2019-05-27 11:00:00 21.2 4 Este 8 Sudeste 0 -- -- 70
2019-05-27 10:00:00 20.4 3 Norte 14 Noroeste 0 -- -- 65
2019-05-27 09:00:00 16.7 9 Noroeste 20 Noroeste 0 -- -- 77
2019-05-27 08:00:00 14 13 Noroeste 21 Noroeste 0 -- -- 87
2019-05-27 07:00:00 13.5 13 Noroeste 20 Noroeste 0 -- -- 88
2019-05-27 06:00:00 13.7 9 Noroeste 16 Noroeste 0 -- -- 89
2019-05-27 05:00:00 14.3 9 Noroeste 12 Noroeste 0 -- -- 87
2019-05-27 04:00:00 14.7 9 Noroeste 11 Norte 0 -- -- 87
2019-05-27 03:00:00 15.3 7 Noroeste 14 Noroeste 0 -- -- 85
2019-05-27 02:00:00 16 9 Norte 11 Norte 0 -- -- 82
2019-05-27 01:00:00 15.9 8 Noroeste 11 Norte 0 -- -- 86
2019-05-27 00:00:00 15.9 4 Noroeste 6 Noroeste 0 -- -- 80
2019-05-26 23:00:00 17.2 2 Oeste 3 Sudoeste 0 -- -- 78
2019-05-26 22:00:00 19.1 2 Oeste 4 Sudeste 0 -- -- 75
2019-05-26 21:00:00 20.7 4 Sur 6 Sudoeste 0 -- -- 79
2019-05-26 20:00:00 21.5 4 Sudeste 7 Este 0 -- -- 78
2019-05-26 19:00:00 22.4 5 Este 8 Este 0 -- -- 76
2019-05-26 18:00:00 22.3 6 Este 13 Este 0 -- -- 75
2019-05-26 17:00:00 22.7 8 Este 12 Este 0 -- -- 73
2019-05-26 16:00:00 22.4 5 Nordeste 11 Nordeste 0 -- -- 71
2019-05-26 15:00:00 22.8 6 Este 12 Este 0 -- -- 71
2019-05-26 14:00:00 21.5 5 Este 15 Nordeste 0 -- -- 74
2019-05-26 13:00:00 21.4 7 Nordeste 15 Nordeste 0 -- -- 70
2019-05-26 12:00:00 21.3 9 Nordeste 12 Nordeste 0 -- -- 68
2019-05-26 11:00:00 20.8 9 Nordeste 17 Nordeste 0 -- -- 69
2019-05-26 10:00:00 20.4 12 Nordeste 19 Nordeste 0 -- -- 65
2019-05-26 09:00:00 18.4 5 Norte 13 Noroeste 0 -- -- 72
2019-05-26 08:00:00 15.7 8 Noroeste 12 Noroeste 0 -- -- 84
2019-05-26 07:00:00 15.2 4 Norte 9 Norte 0 -- -- 89
2019-05-26 06:00:00 15.7 4 Norte 10 Nordeste 0 -- -- 91
2019-05-26 05:00:00 17 6 Nordeste 12 Nordeste 0 -- -- 92
2019-05-26 04:00:00 17 4 Nordeste 11 Nordeste 0 -- -- 92
2019-05-26 03:00:00 17.3 4 Nordeste 15 Nordeste 0 -- -- 92
2019-05-26 02:00:00 17.4 7 Nordeste 14 Nordeste 0 -- -- 95
2019-05-26 01:00:00 17.8 10 Nordeste 16 Nordeste 0 -- -- 94
2019-05-26 00:00:00 17.9 7 Nordeste 15 Este 0 -- -- 95
2019-05-25 23:00:00 18.2 8 Nordeste 15 Nordeste 0 -- -- 93
2019-05-25 22:00:00 18.8 8 Nordeste 10 Nordeste 0 -- -- 91
2019-05-25 21:00:00 19.9 3 Nordeste 5 Nordeste 0 -- -- 86
2019-05-25 20:00:00 20.8 4 Este 10 Este 0 -- -- 82
2019-05-25 19:00:00 21.4 7 Este 13 Este 0 -- -- 80
2019-05-25 18:00:00 22 9 Este 12 Este 0 -- -- 77
2019-05-25 17:00:00 22.2 8 Sudeste 11 Sudeste 0 -- -- 75
2019-05-25 16:00:00 22 7 Sudeste 10 Sudeste 0 -- -- 75
2019-05-25 15:00:00 21.9 9 Este 12 Este 0 -- -- 74
2019-05-25 14:00:00 21.6 5 Sudeste 8 Este 0 -- -- 73
2019-05-25 13:00:00 21.3 5 Este 10 Nordeste 0 -- -- 73
2019-05-25 12:00:00 22.2 6 Este 12 Este 0 -- -- 70
2019-05-25 11:00:00 21.7 5 Este 13 Este 0 -- -- 73
2019-05-25 10:00:00 19 7 Nordeste 14 Nordeste 0 -- -- 82
2019-05-25 09:00:00 18.2 9 Nordeste 14 Nordeste 0 -- -- 88
2019-05-25 08:00:00 17.1 9 Nordeste 18 Nordeste 0 -- -- 90
2019-05-25 07:00:00 16.8 8 Nordeste 19 Nordeste 0 -- -- 91
2019-05-25 06:00:00 17.3 9 Nordeste 24 Este 0 -- -- 90
2019-05-25 05:00:00 17.5 11 Nordeste 27 Este 0 -- -- 90
2019-05-25 04:00:00 17.6 19 Nordeste 29 Nordeste 0 -- -- 90
2019-05-25 03:00:00 17.9 18 Nordeste 34 Nordeste 0 -- -- 89
2019-05-25 02:00:00 18 18 Nordeste 41 Norte 0 -- -- 85
2019-05-25 01:00:00 19.6 23 Norte 44 Norte 0 -- -- 74
2019-05-25 00:00:00 19.8 19 Noroeste 31 Noroeste 0 -- -- 62
2019-05-24 23:00:00 19.7 23 Noroeste 35 Oeste 0 -- -- 61
2019-05-24 22:00:00 20.4 24 Oeste 40 Oeste 0 -- -- 61
2019-05-24 21:00:00 22.3 25 Oeste 43 Oeste 0 -- -- 55
2019-05-24 20:00:00 24.8 28 Oeste 46 Oeste 0 -- -- 50
2019-05-24 19:00:00 26.3 32 Oeste 50 Oeste 0 -- -- 47
2019-05-24 18:00:00 26.8 32 Oeste 53 Oeste 0 -- -- 45
2019-05-24 17:00:00 27.1 33 Oeste 51 Oeste 0 -- -- 44
2019-05-24 16:00:00 27.5 25 Oeste 42 Oeste 0 -- -- 41
2019-05-24 15:00:00 26.9 28 Sudoeste 46 Sudoeste 0 -- -- 35
2019-05-24 14:00:00 27 31 Sudoeste 45 Sudoeste 0 -- -- 36
2019-05-24 13:00:00 26.3 26 Sudoeste 43 Sudoeste 0 -- -- 51
2019-05-24 12:00:00 26 23 Oeste 36 Oeste 0 -- -- 49
2019-05-24 11:00:00 23.2 14 Sudoeste 23 Sudoeste 0 -- -- 59
2019-05-24 10:00:00 18.5 4 Noroeste 9 Noroeste 0 -- -- 72
2019-05-24 09:00:00 15.8 5 Noroeste 15 Noroeste 0 -- -- 76
2019-05-24 08:00:00 14.4 8 Noroeste 13 Noroeste 0 -- -- 78
2019-05-24 07:00:00 14.4 5 Oeste 14 Noroeste 0 -- -- 75
2019-05-24 06:00:00 14.7 9 Noroeste 15 Noroeste 0 -- -- 75
2019-05-24 05:00:00 15.1 8 Noroeste 17 Noroeste 0 -- -- 73
2019-05-24 04:00:00 15.2 11 Noroeste 17 Noroeste 0 -- -- 72
2019-05-24 03:00:00 15.3 8 Noroeste 10 Noroeste 0 -- -- 76
2019-05-24 02:00:00 16.3 6 Noroeste 12 Norte 0 -- -- 72
2019-05-24 01:00:00 16.5 9 Noroeste 10 Noroeste 0 -- -- 70
2019-05-24 00:00:00 17.6 8 Noroeste 10 Noroeste 0 -- -- 66
2019-05-23 23:00:00 16.1 3 Oeste 5 Oeste 0 -- -- 68
2019-05-23 22:00:00 18.8 2 Oeste 10 Sur 0 -- -- 65
2019-05-23 21:00:00 20.6 9 Sur 13 Sur 0 -- -- 68
2019-05-23 20:00:00 21.3 11 Sur 13 Sur 0 -- -- 71
2019-05-23 19:00:00 21.9 6 Sur 9 Sudeste 0 -- -- 71
2019-05-23 18:00:00 21.8 6 Sur 10 Sur 0 -- -- 76
2019-05-23 17:00:00 22 9 Sur 13 Sur 0 -- -- 78
2019-05-23 16:00:00 22.2 7 Sudeste 12 Sudeste 0 -- -- 75
2019-05-23 15:00:00 22 7 Sur 10 Sur 0 -- -- 73
2019-05-23 14:00:00 21.6 6 Sur 9 Sur 0 -- -- 74
2019-05-23 13:00:00 21.2 6 Sur 9 Sur 0 -- -- 72
2019-05-23 12:00:00 21.5 4 Sudeste 6 Nordeste 0 -- -- 67
2019-05-23 11:00:00 20.5 3 Nordeste 6 Nordeste 0 -- -- 68
2019-05-23 10:00:00 19.4 3 Norte 14 Noroeste 0 -- -- 76
2019-05-23 09:00:00 15.8 11 Noroeste 19 Noroeste 0 -- -- 87
2019-05-23 08:00:00 13.5 10 Noroeste 14 Noroeste 0 -- -- 95
2019-05-23 07:00:00 13 8 Noroeste 15 Norte 0 -- -- 95
2019-05-23 06:00:00 13.5 10 Noroeste 17 Noroeste 0 -- -- 94
2019-05-23 05:00:00 14.2 4 Noroeste 9 Noroeste 0 -- -- 94
2019-05-23 04:00:00 14.6 6 Noroeste 10 Norte 0 -- -- 94
2019-05-23 03:00:00 14.9 6 Noroeste 11 Noroeste 0 -- -- 94
2019-05-23 02:00:00 15.4 9 Noroeste 13 Noroeste 0 -- -- 95
2019-05-23 01:00:00 16.1 6 Noroeste 12 Noroeste 0 -- -- 95
2019-05-23 00:00:00 15.6 3 Noroeste 5 Noroeste 0 -- -- 92
2019-05-22 23:00:00 16.7 0 Calma 8 Nordeste 0 -- -- 90
2019-05-22 22:00:00 17.8 6 Nordeste 10 Este 0 -- -- 93
2019-05-22 21:00:00 18.2 6 Nordeste 10 Nordeste 0 -- -- 91
2019-05-22 20:00:00 19.2 6 Nordeste 13 Nordeste 0 -- -- 88
2019-05-22 19:00:00 19.7 9 Nordeste 13 Nordeste 0 -- -- 86
2019-05-22 18:00:00 20.2 7 Nordeste 11 Nordeste 0 -- -- 83
2019-05-22 17:00:00 21.9 7 Este 12 Nordeste 0 -- -- 77
2019-05-22 16:00:00 20.3 7 Nordeste 11 Nordeste 0 -- -- 82
2019-05-22 15:00:00 20.5 8 Nordeste 14 Nordeste 0 -- -- 80
2019-05-22 14:00:00 20.4 7 Nordeste 13 Nordeste 0 -- -- 81
2019-05-22 13:00:00 20 7 Nordeste 12 Nordeste 0 -- -- 83
2019-05-22 12:00:00 20 5 Nordeste 14 Este 0 -- -- 83
2019-05-22 11:00:00 18.7 4 Nordeste 9 Nordeste 0 -- -- 86
2019-05-22 10:00:00 18 6 Nordeste 9 Nordeste 0 -- -- 90
2019-05-22 09:00:00 17 5 Nordeste 13 Nordeste 0 -- -- 94
2019-05-22 08:00:00 16.5 11 Nordeste 21 Este 0 -- -- 94
2019-05-22 07:00:00 16.6 10 Este 26 Este 0 -- -- 93
2019-05-22 06:00:00 16.6 15 Nordeste 32 Nordeste 0 -- -- 93
2019-05-22 05:00:00 16.6 19 Nordeste 30 Nordeste 0 -- -- 94
2019-05-22 04:00:00 17.2 19 Nordeste 29 Nordeste 0 -- -- 92
2019-05-22 03:00:00 17.6 11 Norte 20 Norte 0 -- -- 89
2019-05-22 02:00:00 18.1 9 Norte 17 Norte 0 -- -- 86
2019-05-22 01:00:00 18.6 7 Norte 15 Norte 0 -- -- 81
2019-05-22 00:00:00 19.1 8 Norte 26 Oeste 0 -- -- 75
2019-05-21 23:00:00 21.2 18 Oeste 32 Oeste 0 -- -- 53
2019-05-21 22:00:00 22.2 19 Oeste 28 Oeste 0 -- -- 49
2019-05-21 21:00:00 25 16 Oeste 31 Oeste 0 -- -- 43
2019-05-21 20:00:00 26.8 17 Oeste 33 Oeste 0 -- -- 38
2019-05-21 19:00:00 28.3 18 Oeste 33 Sudoeste 0 -- -- 36
2019-05-21 18:00:00 29 20 Oeste 31 Oeste 0 -- -- 36
2019-05-21 17:00:00 29 21 Oeste 37 Oeste 0 -- -- 38
2019-05-21 16:00:00 29.2 19 Oeste 35 Oeste 0 -- -- 39
2019-05-21 15:00:00 28.8 20 Sudoeste 34 Oeste 0 -- -- 42
2019-05-21 14:00:00 27.9 19 Oeste 34 Sudoeste 0 -- -- 40
2019-05-21 13:00:00 26.8 18 Oeste 35 Sudoeste 0 -- -- 43
2019-05-21 12:00:00 25.9 19 Oeste 30 Oeste 0 -- -- 45
2019-05-21 11:00:00 24.2 13 Oeste 26 Oeste 0 -- -- 50
2019-05-21 10:00:00 21.9 20 Oeste 28 Oeste 0 -- -- 58
2019-05-21 09:00:00 19.6 16 Oeste 23 Oeste 0 -- -- 68
2019-05-21 08:00:00 17.2 12 Oeste 23 Oeste 0 -- -- 77
2019-05-21 07:00:00 16.7 13 Oeste 29 Oeste 0 -- -- 77
2019-05-21 06:00:00 16.6 18 Oeste 27 Noroeste 0 -- -- 75
2019-05-21 05:00:00 17.1 18 Oeste 33 Oeste 0 -- -- 73
2019-05-21 04:00:00 17.6 18 Oeste 26 Oeste 0 -- -- 67
2019-05-21 03:00:00 17.9 18 Oeste 26 Oeste 0 -- -- 61
2019-05-21 02:00:00 18.2 15 Oeste 31 Oeste 0 -- -- 52
2019-05-21 01:00:00 18.2 18 Oeste 31 Oeste 0 -- -- 52
2019-05-21 00:00:00 18.8 23 Oeste 38 Oeste 0 -- -- 58